EST,Max TemperatureF,Mean TemperatureF,Min TemperatureF,Max Dew PointF,MeanDew PointF,Min DewpointF,Max Humidity, Mean Humidity, Min Humidity, Max Sea Level PressureIn, Mean Sea Level PressureIn, Min Sea Level PressureIn, Max VisibilityMiles, Mean VisibilityMiles, Min VisibilityMiles, Max Wind SpeedMPH, Mean Wind SpeedMPH, Max Gust SpeedMPH,PrecipitationIn, CloudCover, Events, WindDirDegrees
2013-11-1,69,62,55,63,59,55,100,90,77,29.84,29.68,29.62,10,8,0,20,9,29,0.05,4,,215
2013-11-2,69,60,50,55,49,37,100,74,38,29.80,29.69,29.63,10,7,0,8,1,,0.00,6,,302
2013-11-3,53,43,33,41,33,19,87,63,40,30.43,30.10,29.81,10,10,10,13,4,20,0.00,3,,339
2013-11-4,44,35,26,28,23,18,75,61,43,30.65,30.59,30.45,10,10,10,12,3,17,0.00,1,,24
2013-11-5,55,44,32,43,35,27,93,75,54,30.64,30.59,30.50,10,10,1,7,1,,0.00,2,,113
2013-11-6,62,45,28,55,42,27,100,80,52,30.50,30.32,30.10,10,10,1,12,3,,0.00,1,,174
2013-11-7,62,48,33,61,51,30,100,87,71,30.09,29.91,29.79,10,10,7,20,7,30,0.05,6,,254
2013-11-8,48,38,28,36,28,25,87,62,40,30.26,30.10,29.98,10,10,10,22,6,30,0.00,3,,296
2013-11-9,50,39,28,36,27,23,86,62,37,30.32,30.22,30.03,10,10,10,12,5,,0.00,0,,258
2013-11-10,62,52,41,36,31,23,76,53,29,30.10,29.97,29.86,10,9,2,26,9,38,0.00,2,,263
2013-11-11,55,44,32,34,28,25,80,50,33,30.25,30.14,30.00,10,10,10,15,8,18,0.00,4,,262
2013-11-12,48,38,28,37,22,12,87,58,44,30.32,30.14,29.94,10,10,4,20,8,29,0.00,5,,314
2013-11-13,39,31,23,18,13,9,74,51,28,30.40,30.35,30.31,10,10,10,18,9,25,0.00,0,,300
2013-11-14,44,34,24,25,19,16,74,65,31,30.32,30.26,30.21,10,10,10,22,8,29,0.00,0,,249
2013-11-15,33,30,26,30,26,23,93,90,80,30.28,30.23,30.19,10,10,10,7,2,,0.00,0,,232
2013-11-16,,,,,,,,,,,,,,,,,,,,,,
2013-11-17,,,,,,,,,,,,,,,,,,,,,,
2013-11-18,,,,,,,,,,29.82,29.72,29.65,10,10,10,21,11,28,0.00,0,,279
2013-11-19,44,43,28,23,23,23,80,53,43,30.35,30.08,29.82,10,10,10,21,11,30,0.00,1,,318
2013-11-20,42,32,23,18,17,16,74,62,36,30.60,30.51,30.36,10,10,10,9,3,,0.00,0,,2
2013-11-21,37,33,33,28,25,21,70,65,60,30.59,30.51,30.40,10,10,10,9,1,,0.00,6,,133
2013-11-22,,,,,,,,,,30.40,30.14,29.94,10,10,7,14,2,18,0.00,6,,246
2013-11-23,41,39,33,21,18,16,52,46,41,30.05,29.99,29.94,10,10,10,18,9,26,0.00,1,,306
2013-11-24,30,21,12,16,1,-2,67,40,27,30.44,30.24,30.03,10,9,2,26,16,39,0.00,0,,308
2013-11-25,35,24,12,12,8,1,73,54,33,30.53,30.44,30.36,10,10,10,14,6,20,0.00,0,,256
2013-11-26,35,30,28,34,22,16,93,68,55,30.37,30.20,29.71,10,9,3,14,4,24,0.53,7,,202
2013-11-27,62,48,33,61,37,21,94,87,60,29.81,29.50,29.37,10,8,3,25,14,38,0.83,7,,281
2013-11-28,30,26,21,19,17,14,86,68,51,30.50,30.24,29.83,10,10,10,20,11,29,0.00,1,,302
2013-11-29,39,31,23,23,19,16,86,69,39,30.73,30.59,30.48,10,10,10,6,1,,0.00,2,,340
2013-11-30,37,27,21,25,17,12,74,68,56,30.73,30.61,30.36,10,10,10,9,1,,0.00,3,,77